createdAt,value
2023-04-28T00:00:00.485Z,1.1
2023-04-28T00:01:00.574Z,1.1
2023-04-28T00:02:00.500Z,1.1
2023-04-28T00:03:00.582Z,1.1
2023-04-28T00:04:00.657Z,1.1
2023-04-28T00:05:00.640Z,1.1
2023-04-28T00:06:00.778Z,1.1
2023-04-28T00:07:00.514Z,1.1
2023-04-28T00:08:00.519Z,1.1
2023-04-28T00:09:00.589Z,1.1
2023-04-28T00:10:00.523Z,1.1
2023-04-28T00:11:00.524Z,1.1
2023-04-28T00:12:00.529Z,1.1
2023-04-28T00:13:00.495Z,1.1
2023-04-28T00:14:00.500Z,1.1
2023-04-28T00:15:00.544Z,1.1
2023-04-28T00:16:00.522Z,1.1
2023-04-28T00:17:00.557Z,1.1
2023-04-28T00:18:00.578Z,1.1
2023-04-28T00:19:00.570Z,1.1
2023-04-28T00:20:00.516Z,1.1
2023-04-28T00:21:00.522Z,1.1
2023-04-28T00:22:00.519Z,1.1
2023-04-28T00:23:00.526Z,1.1
2023-04-28T00:24:00.517Z,1.1
2023-04-28T00:25:00.543Z,1.1
2023-04-28T00:26:00.531Z,1.1
2023-04-28T00:27:00.556Z,1.1
2023-04-28T00:28:00.516Z,1.1
2023-04-28T00:29:00.531Z,1.1
2023-04-28T00:30:00.613Z,1.1
2023-04-28T00:31:00.503Z,1.1
2023-04-28T00:32:00.565Z,1.1
2023-04-28T00:33:00.644Z,1.1
2023-04-28T00:34:00.594Z,1.1
2023-04-28T00:35:00.540Z,1.1
2023-04-28T00:36:00.554Z,1.1
2023-04-28T00:37:00.548Z,1.1
2023-04-28T00:38:00.537Z,1.1
2023-04-28T00:39:00.521Z,1.1
2023-04-28T00:40:02.224Z,1.1
2023-04-28T00:41:00.553Z,1.1
2023-04-28T00:42:00.540Z,1.1
2023-04-28T00:43:00.524Z,1.1
2023-04-28T00:44:00.597Z,1.1
2023-04-28T00:45:00.530Z,1.1
2023-04-28T00:46:00.564Z,1.1
2023-04-28T00:47:00.539Z,1.1
2023-04-28T00:48:00.563Z,1.1
2023-04-28T00:49:00.525Z,1.1
2023-04-28T00:50:00.566Z,1.1
2023-04-28T00:51:00.604Z,1.1
2023-04-28T00:52:00.557Z,1.1
2023-04-28T00:53:00.529Z,1.1
2023-04-28T00:54:00.547Z,1.1
2023-04-28T00:55:00.537Z,1.1
2023-04-28T00:56:00.629Z,1.1
2023-04-28T00:57:00.549Z,1.1
2023-04-28T00:58:00.544Z,1.1
2023-04-28T00:59:00.564Z,1.1
2023-04-28T01:00:00.567Z,1.1
2023-04-28T01:01:00.597Z,1.1
2023-04-28T01:02:00.716Z,1.1
2023-04-28T01:03:00.739Z,1.1
2023-04-28T01:04:00.793Z,1.1
2023-04-28T01:05:00.652Z,1.1
2023-04-28T01:06:00.614Z,1.1
2023-04-28T01:07:00.583Z,1.1
2023-04-28T01:08:00.601Z,1.1
2023-04-28T01:09:00.624Z,1.1
2023-04-28T01:10:00.582Z,1.1
2023-04-28T01:11:00.609Z,1.1
2023-04-28T01:12:00.606Z,1.1
2023-04-28T01:13:00.637Z,1.1
2023-04-28T01:14:00.598Z,1.1
2023-04-28T01:15:00.594Z,1.1
2023-04-28T01:16:00.633Z,1.1
2023-04-28T01:17:00.602Z,1.1
2023-04-28T01:18:00.617Z,1.1
2023-04-28T01:19:00.596Z,1.1
2023-04-28T01:20:00.615Z,1.1
2023-04-28T01:21:00.596Z,1.1
2023-04-28T01:22:00.604Z,1.1
2023-04-28T01:23:00.675Z,1.1
2023-04-28T01:24:00.628Z,1.1
2023-04-28T01:25:00.584Z,1.1
2023-04-28T01:26:00.599Z,1.1
2023-04-28T01:27:00.595Z,1.1
2023-04-28T01:28:00.581Z,1.1
2023-04-28T01:29:00.598Z,1.1
2023-04-28T01:30:00.602Z,1.1
2023-04-28T01:31:00.596Z,1.1
2023-04-28T01:32:00.674Z,1.1
2023-04-28T01:33:00.694Z,1.1
2023-04-28T01:34:00.598Z,1.1
2023-04-28T01:35:00.582Z,1.1
2023-04-28T01:36:00.615Z,1.1
2023-04-28T01:37:00.634Z,1.1
2023-04-28T01:38:00.604Z,1.1
2023-04-28T01:39:00.630Z,1.1
2023-04-28T01:40:00.602Z,1.1
2023-04-28T01:41:00.602Z,1.1
2023-04-28T01:42:00.608Z,1.1
2023-04-28T01:43:00.633Z,1.1
2023-04-28T01:44:00.586Z,1.1
2023-04-28T01:45:00.608Z,1.1
2023-04-28T01:46:00.618Z,1.1
2023-04-28T01:47:00.619Z,1.1
2023-04-28T01:48:00.632Z,1.1
2023-04-28T01:49:00.605Z,1.1
2023-04-28T01:50:00.637Z,1.1
2023-04-28T01:51:00.603Z,1.1
2023-04-28T01:52:00.640Z,1.1
2023-04-28T01:53:00.601Z,1.1
2023-04-28T01:54:00.660Z,1.1
2023-04-28T01:55:00.652Z,1.1
2023-04-28T01:56:00.623Z,1.1
2023-04-28T01:57:00.615Z,1.1
2023-04-28T01:58:00.601Z,1.1
2023-04-28T01:59:00.600Z,1.1
2023-04-28T02:00:00.737Z,1.1
2023-04-28T02:01:01.613Z,1.1
2023-04-28T02:02:01.914Z,1.1
2023-04-28T02:03:01.678Z,1.1
2023-04-28T02:04:01.952Z,1.1
2023-04-28T02:05:01.655Z,1.1
2023-04-28T02:06:01.644Z,1.1
2023-04-28T02:07:01.634Z,1.1
2023-04-28T02:08:01.812Z,1.1
2023-04-28T02:09:01.691Z,1.1
2023-04-28T02:10:02.132Z,1.1
2023-04-28T02:11:01.751Z,1.1
2023-04-28T02:12:01.731Z,1.1
2023-04-28T02:13:01.666Z,1.1
2023-04-28T02:14:01.618Z,1.1
2023-04-28T02:15:01.681Z,1.1
2023-04-28T02:16:01.810Z,1.1
2023-04-28T02:17:01.621Z,1.1
2023-04-28T02:18:01.754Z,1.1
2023-04-28T02:19:01.620Z,1.1
2023-04-28T02:20:01.779Z,1.1
2023-04-28T02:21:01.655Z,1.1
2023-04-28T02:22:01.635Z,1.1
2023-04-28T02:23:01.683Z,1.1
2023-04-28T02:24:01.679Z,1.1
2023-04-28T02:25:01.651Z,1.1
2023-04-28T02:26:01.838Z,1.1
2023-04-28T02:27:01.635Z,1.1
2023-04-28T02:28:01.764Z,1.1
2023-04-28T02:29:01.869Z,1.1
2023-04-28T02:30:01.924Z,1.1
2023-04-28T02:31:01.799Z,1.1
2023-04-28T02:32:01.703Z,1.1
2023-04-28T02:33:01.729Z,1.1
2023-04-28T02:34:01.653Z,1.1
2023-04-28T02:35:01.630Z,1.1
2023-04-28T02:36:01.660Z,1.1
2023-04-28T02:37:01.635Z,1.1
2023-04-28T02:38:01.860Z,1.1
2023-04-28T02:39:01.693Z,1.1
2023-04-28T02:40:01.671Z,1.1
2023-04-28T02:41:01.660Z,1.1
2023-04-28T02:42:01.652Z,1.1
2023-04-28T02:43:01.644Z,1.1
2023-04-28T02:44:01.623Z,1.1
2023-04-28T02:45:01.666Z,1.1
2023-04-28T02:46:01.653Z,1.1
2023-04-28T02:47:01.883Z,1.1
2023-04-28T02:48:01.681Z,1.1
2023-04-28T02:49:01.666Z,1.1
2023-04-28T02:50:01.809Z,1.1
2023-04-28T02:51:01.651Z,1.1
2023-04-28T02:52:01.643Z,1.1
2023-04-28T02:53:01.634Z,1.1
2023-04-28T02:54:01.644Z,1.1
2023-04-28T02:55:01.666Z,1.1
2023-04-28T02:56:01.656Z,1.1
2023-04-28T02:57:01.646Z,1.1
2023-04-28T02:58:01.663Z,1.1
2023-04-28T02:59:01.643Z,1.1
2023-04-28T03:00:02.789Z,1.1
2023-04-28T03:01:01.700Z,1.1
2023-04-28T03:02:01.643Z,1.1
2023-04-28T03:03:01.810Z,1.1
2023-04-28T03:04:01.915Z,1.1
2023-04-28T03:05:01.732Z,1.1
2023-04-28T03:06:01.676Z,1.1
2023-04-28T03:07:01.696Z,1.1
2023-04-28T03:08:02.786Z,1.1
2023-04-28T03:09:01.674Z,1.1
2023-04-28T03:10:01.919Z,1.1
2023-04-28T03:11:01.683Z,1.1
2023-04-28T03:12:01.665Z,1.1
2023-04-28T03:13:01.697Z,1.1
2023-04-28T03:14:01.749Z,1.1
2023-04-28T03:15:01.694Z,1.1
2023-04-28T03:16:01.727Z,1.1
2023-04-28T03:17:01.657Z,1.1
2023-04-28T03:18:01.738Z,1.1
2023-04-28T03:19:01.728Z,1.1
2023-04-28T03:20:03.164Z,1.1
2023-04-28T03:21:01.686Z,1.1
2023-04-28T03:22:01.685Z,1.1
2023-04-28T03:23:01.669Z,1.1
2023-04-28T03:24:12.873Z,1.1
2023-04-28T03:25:01.747Z,1.1
2023-04-28T03:26:01.751Z,1.1
2023-04-28T03:27:01.693Z,1.1
2023-04-28T03:28:01.689Z,1.1
2023-04-28T03:29:01.734Z,1.1
2023-04-28T03:30:01.833Z,1.1
2023-04-28T03:31:01.705Z,1.1
2023-04-28T03:32:01.728Z,1.1
2023-04-28T03:33:01.812Z,1.1
2023-04-28T03:34:01.706Z,1.1
2023-04-28T03:35:01.755Z,1.1
2023-04-28T03:36:01.743Z,1.1
2023-04-28T03:37:01.707Z,1.1
2023-04-28T03:38:01.709Z,1.1
2023-04-28T03:39:01.707Z,1.1
2023-04-28T03:40:01.849Z,1.1
2023-04-28T03:41:01.800Z,1.1
2023-04-28T03:42:01.736Z,1.1
2023-04-28T03:43:03.997Z,1.1
2023-04-28T03:44:01.765Z,1.1
2023-04-28T03:45:01.752Z,1.1
2023-04-28T03:46:01.809Z,1.1
2023-04-28T03:47:01.807Z,1.1
2023-04-28T03:48:01.757Z,1.1
2023-04-28T03:49:01.716Z,1.1
2023-04-28T03:50:01.823Z,1.1
2023-04-28T03:51:01.730Z,1.1
2023-04-28T03:52:01.730Z,1.1
2023-04-28T03:53:01.725Z,1.1
2023-04-28T03:54:01.759Z,1.1
2023-04-28T03:55:01.771Z,1.1
2023-04-28T03:56:01.757Z,1.1
2023-04-28T03:57:01.746Z,1.1
2023-04-28T03:58:01.747Z,1.1
2023-04-28T03:59:01.752Z,1.2
2023-04-28T04:00:01.882Z,1.2
2023-04-28T04:01:01.779Z,1.3
2023-04-28T04:02:01.824Z,1.6
2023-04-28T04:03:01.944Z,2
2023-04-28T04:04:01.904Z,2.5
2023-04-28T04:05:01.973Z,2.4
2023-04-28T04:06:01.751Z,2.3
2023-04-28T04:07:01.790Z,2.7
2023-04-28T04:08:01.778Z,2.9
2023-04-28T04:09:01.748Z,2.7
2023-04-28T04:10:04.079Z,3.3
2023-04-28T04:11:01.774Z,4.5
2023-04-28T04:12:01.775Z,5.7
2023-04-28T04:13:01.795Z,5.5
2023-04-28T04:14:01.758Z,5.5
2023-04-28T04:15:01.859Z,6.9
2023-04-28T04:16:01.878Z,7.6
2023-04-28T04:17:01.807Z,7.6
2023-04-28T04:18:01.860Z,7.5
2023-04-28T04:19:01.779Z,7.7
2023-04-28T04:20:01.831Z,6.8
2023-04-28T04:21:01.799Z,7.4
2023-04-28T04:22:01.767Z,7.2
2023-04-28T04:23:01.801Z,8
2023-04-28T04:24:01.797Z,8.1
2023-04-28T04:25:01.826Z,10.5
2023-04-28T04:26:01.784Z,12.3
2023-04-28T04:27:01.823Z,14.2
2023-04-28T04:28:01.774Z,18.3
2023-04-28T04:29:01.791Z,18.3
2023-04-28T04:30:01.884Z,18.3
2023-04-28T04:31:01.797Z,16.4
2023-04-28T04:32:01.754Z,17.6
2023-04-28T04:33:01.798Z,17.9
2023-04-28T04:34:01.781Z,21.4
2023-04-28T04:35:01.870Z,24.1
2023-04-28T04:36:01.781Z,26.2
2023-04-28T04:37:01.828Z,24.7
2023-04-28T04:38:01.843Z,24.4
2023-04-28T04:39:01.795Z,25.3
2023-04-28T04:40:01.835Z,23.2
2023-04-28T04:41:01.789Z,26.5
2023-04-28T04:42:10.176Z,27.5
2023-04-28T04:43:01.839Z,26.5
2023-04-28T04:44:01.768Z,28.1
2023-04-28T04:45:01.824Z,27.1
2023-04-28T04:46:01.855Z,29.1
2023-04-28T04:47:01.810Z,30.6
2023-04-28T04:48:01.929Z,34.5
2023-04-28T04:49:01.900Z,38.8
2023-04-28T04:50:01.848Z,43.8
2023-04-28T04:51:01.791Z,49.9
2023-04-28T04:52:01.799Z,55.6
2023-04-28T04:53:01.804Z,59
2023-04-28T04:54:01.785Z,64.9
2023-04-28T04:55:01.804Z,71.5
2023-04-28T04:56:01.803Z,75.9
2023-04-28T04:57:01.803Z,85.5
2023-04-28T04:58:01.823Z,96.4
2023-04-28T04:59:01.801Z,106
2023-04-28T05:00:01.906Z,116.7
2023-04-28T05:01:01.792Z,138
2023-04-28T05:02:01.858Z,155.5
2023-04-28T05:03:01.982Z,159.3
2023-04-28T05:04:01.956Z,163.1
2023-04-28T05:05:16.877Z,175.2
2023-04-28T05:06:01.796Z,163.1
2023-04-28T05:07:01.809Z,159.3
2023-04-28T05:08:01.823Z,165.1
2023-04-28T05:09:01.909Z,159.3
2023-04-28T05:10:01.915Z,151.8
2023-04-28T05:11:01.798Z,155.5
2023-04-28T05:12:01.783Z,151.8
2023-04-28T05:13:01.874Z,165.1
2023-04-28T05:14:01.805Z,197.5
2023-04-28T05:15:01.829Z,167.1
2023-04-28T05:16:01.810Z,159.3
2023-04-28T05:17:01.846Z,148.2
2023-04-28T05:18:01.830Z,169.1
2023-04-28T05:19:01.818Z,173.2
2023-04-28T05:20:01.854Z,186
2023-04-28T05:21:01.804Z,153.6
2023-04-28T05:22:01.796Z,146.5
2023-04-28T05:23:01.800Z,146.5
2023-04-28T05:24:01.804Z,141.3
2023-04-28T05:25:01.835Z,128.4
2023-04-28T05:26:01.788Z,115.3
2023-04-28T05:27:02.820Z,112.6
2023-04-28T05:28:01.794Z,134.7
2023-04-28T05:29:01.798Z,171.1
2023-04-28T05:30:01.828Z,204.7
2023-04-28T05:31:01.796Z,222.6
2023-04-28T05:32:01.873Z,190.5
2023-04-28T05:33:01.905Z,177.3
2023-04-28T05:34:01.927Z,155.5
2023-04-28T05:35:01.801Z,161.2
2023-04-28T05:36:01.819Z,138
2023-04-28T05:37:01.843Z,131.5
2023-04-28T05:38:01.836Z,186
2023-04-28T05:39:01.838Z,260
2023-04-28T05:40:01.830Z,330.3
2023-04-28T05:41:01.935Z,318.7
2023-04-28T05:42:01.955Z,293.1
2023-04-28T05:43:01.892Z,272.8
2023-04-28T05:44:02.234Z,272.8
2023-04-28T05:45:02.679Z,272.8
2023-04-28T05:46:01.606Z,296.6
2023-04-28T05:47:01.660Z,289.6
2023-04-28T05:48:01.197Z,318.7
2023-04-28T05:49:01.210Z,330.3
2023-04-28T05:50:01.020Z,363.5
2023-04-28T05:51:00.863Z,404.8
2023-04-28T05:52:00.872Z,419.6
2023-04-28T05:53:00.793Z,445.4
2023-04-28T05:54:00.703Z,456.2
2023-04-28T05:55:00.791Z,490.1
2023-04-28T05:56:00.611Z,490.1
2023-04-28T05:57:01.595Z,478.5
2023-04-28T05:58:00.655Z,399.9
2023-04-28T05:59:00.649Z,338.3
2023-04-28T06:00:00.798Z,326.4
2023-04-28T06:01:00.727Z,338.3
2023-04-28T06:02:00.881Z,350.6
2023-04-28T06:03:00.949Z,376.7
2023-04-28T06:04:01.291Z,381.3
2023-04-28T06:05:00.902Z,404.8
2023-04-28T06:06:00.704Z,395.2
2023-04-28T06:07:00.631Z,354.9
2023-04-28T06:08:00.586Z,350.6
2023-04-28T06:09:00.634Z,390.5
2023-04-28T06:10:00.674Z,490.1
2023-04-28T06:11:00.583Z,539.3
2023-04-28T06:12:00.727Z,520.3
2023-04-28T06:13:00.680Z,484.3
2023-04-28T06:14:00.552Z,545.8
2023-04-28T06:15:00.569Z,559
2023-04-28T06:16:00.721Z,552.4
2023-04-28T06:17:00.567Z,526.6
2023-04-28T06:18:00.650Z,484.3
2023-04-28T06:19:00.607Z,424.6
2023-04-28T06:20:00.588Z,414.5
2023-04-28T06:21:00.571Z,404.8
2023-04-28T06:22:00.578Z,395.2
2023-04-28T06:23:00.589Z,414.5
2023-04-28T06:24:00.568Z,456.2
2023-04-28T06:25:00.607Z,484.3
2023-04-28T06:26:00.599Z,526.6
2023-04-28T06:27:00.573Z,559
2023-04-28T06:28:00.573Z,579.4
2023-04-28T06:29:00.601Z,545.8
2023-04-28T06:30:00.663Z,572.5
2023-04-28T06:31:00.621Z,653
2023-04-28T06:32:00.583Z,718.6
2023-04-28T06:33:00.629Z,772.1
2023-04-28T06:34:00.578Z,800.3
2023-04-28T06:35:00.593Z,809.9
2023-04-28T06:36:00.602Z,819.6
2023-04-28T06:37:00.608Z,790.8
2023-04-28T06:38:00.582Z,809.9
2023-04-28T06:39:00.599Z,839.5
2023-04-28T06:40:00.621Z,891.2
2023-04-28T06:41:00.585Z,891.2
2023-04-28T06:42:00.578Z,859.8
2023-04-28T06:43:00.615Z,819.6
2023-04-28T06:44:00.624Z,829.5
2023-04-28T06:45:00.625Z,829.5
2023-04-28T06:46:00.620Z,849.6
2023-04-28T06:47:00.656Z,829.5
2023-04-28T06:48:00.651Z,819.6
2023-04-28T06:49:00.891Z,800.3
2023-04-28T06:50:00.727Z,772.1
2023-04-28T06:51:00.616Z,753.8
2023-04-28T06:52:00.632Z,781.4
2023-04-28T06:53:00.706Z,781.4
2023-04-28T06:54:00.615Z,809.9
2023-04-28T06:55:00.785Z,859.8
2023-04-28T06:56:00.599Z,957.5
2023-04-28T06:57:00.643Z,980.7
2023-04-28T06:58:00.612Z,992.5
2023-04-28T06:59:00.631Z,912.8
2023-04-28T07:00:00.633Z,819.6
2023-04-28T07:01:00.648Z,829.5
2023-04-28T07:02:00.718Z,934.9
2023-04-28T07:03:00.932Z,992.5
2023-04-28T07:04:00.732Z,934.9
2023-04-28T07:05:00.659Z,912.8
2023-04-28T07:06:00.658Z,901.9
2023-04-28T07:07:00.624Z,1016.5
2023-04-28T07:08:00.649Z,1079.1
2023-04-28T07:09:00.635Z,1041.1
2023-04-28T07:10:00.684Z,957.5
2023-04-28T07:11:00.614Z,912.8
2023-04-28T07:12:00.625Z,891.2
2023-04-28T07:13:00.625Z,934.9
2023-04-28T07:14:00.620Z,934.9
2023-04-28T07:15:00.692Z,992.5
2023-04-28T07:16:00.804Z,1066.3
2023-04-28T07:17:00.660Z,992.5
2023-04-28T07:18:00.674Z,912.8
2023-04-28T07:19:00.646Z,946.1
2023-04-28T07:20:01.077Z,957.5
2023-04-28T07:21:01.481Z,957.5
2023-04-28T07:22:00.640Z,1004.4
2023-04-28T07:23:00.682Z,980.7
2023-04-28T07:24:00.665Z,912.8
2023-04-28T07:25:00.664Z,849.6
2023-04-28T07:26:00.655Z,744.8
2023-04-28T07:27:00.730Z,718.6
2023-04-28T07:28:00.657Z,685.1
2023-04-28T07:29:00.669Z,668.8
2023-04-28T07:30:03.152Z,615.1
2023-04-28T07:31:00.686Z,660.9
2023-04-28T07:32:00.805Z,660.9
2023-04-28T07:33:00.758Z,653
2023-04-28T07:34:00.694Z,676.9
2023-04-28T07:35:00.703Z,668.8
2023-04-28T07:36:00.683Z,753.8
2023-04-28T07:37:00.739Z,727.2
2023-04-28T07:38:00.676Z,790.8
2023-04-28T07:39:00.667Z,790.8
2023-04-28T07:40:00.787Z,849.6
2023-04-28T07:41:00.697Z,849.6
2023-04-28T07:42:00.689Z,800.3
2023-04-28T07:43:00.670Z,744.8
2023-04-28T07:44:00.671Z,701.6
2023-04-28T07:45:00.858Z,637.6
2023-04-28T07:46:00.696Z,586.4
2023-04-28T07:47:00.676Z,552.4
2023-04-28T07:48:00.695Z,514.1
2023-04-28T07:49:00.665Z,502
2023-04-28T07:50:00.742Z,484.3
2023-04-28T07:51:00.688Z,440.1
2023-04-28T07:52:00.716Z,434.9
2023-04-28T07:53:00.659Z,434.9
2023-04-28T07:54:00.667Z,419.6
2023-04-28T07:55:00.683Z,429.7
2023-04-28T07:56:00.682Z,434.9
2023-04-28T07:57:00.706Z,478.5
2023-04-28T07:58:00.681Z,478.5
2023-04-28T07:59:00.680Z,484.3
2023-04-28T08:00:02.119Z,532.9
2023-04-28T08:01:00.712Z,586.4
2023-04-28T08:02:00.776Z,645.3
2023-04-28T08:03:00.859Z,718.6
2023-04-28T08:04:01.312Z,736
2023-04-28T08:05:01.005Z,781.4
2023-04-28T08:06:01.106Z,849.6
2023-04-28T08:07:00.692Z,870.2
2023-04-28T08:08:00.693Z,923.7
2023-04-28T08:09:00.688Z,1041.1
2023-04-28T08:10:00.770Z,1004.4
2023-04-28T08:11:00.698Z,1016.5
2023-04-28T08:12:00.723Z,1216.2
2023-04-28T08:13:00.693Z,1245.7
2023-04-28T08:14:00.710Z,1403.9
2023-04-28T08:15:00.772Z,1455.2
2023-04-28T08:16:00.793Z,1472.7
2023-04-28T08:17:00.727Z,1338.3
2023-04-28T08:18:00.757Z,1291.2
2023-04-28T08:19:01.810Z,1105.3
2023-04-28T08:20:00.762Z,1053.6
2023-04-28T08:21:00.691Z,1092.1
2023-04-28T08:22:00.703Z,1159.4
2023-04-28T08:23:00.709Z,1187.5
2023-04-28T08:24:00.693Z,1306.7
2023-04-28T08:25:01.742Z,1472.7
2023-04-28T08:26:00.698Z,1741
2023-04-28T08:27:00.702Z,1699.9
2023-04-28T08:28:00.718Z,1870.6
2023-04-28T08:29:01.718Z,1870.6
2023-04-28T08:30:00.866Z,1720.4
2023-04-28T08:31:00.814Z,1640
2023-04-28T08:32:00.708Z,1601.3
2023-04-28T08:33:00.718Z,1640
2023-04-28T08:34:00.704Z,1826.4
2023-04-28T08:35:00.838Z,1508.3
2023-04-28T08:36:00.719Z,1699.9
2023-04-28T08:37:00.722Z,1679.7
2023-04-28T08:38:00.714Z,1620.5
2023-04-28T08:39:00.711Z,1544.8
2023-04-28T08:40:00.803Z,1563.4
2023-04-28T08:41:01.672Z,1741
2023-04-28T08:42:00.722Z,1741
2023-04-28T08:43:00.747Z,1526.4
2023-04-28T08:44:00.713Z,1640
2023-04-28T08:45:00.744Z,1659.7
2023-04-28T08:46:00.755Z,1962.2
2023-04-28T08:47:00.782Z,2058.4
2023-04-28T08:48:00.913Z,2083.2
2023-04-28T08:49:00.717Z,2009.8
2023-04-28T08:50:01.251Z,1699.9
2023-04-28T08:51:00.715Z,2034
2023-04-28T08:52:00.891Z,2433.5
2023-04-28T08:53:00.929Z,2108.2
2023-04-28T08:55:00.937Z,1870.6
2023-04-28T08:56:00.881Z,2376
2023-04-28T08:57:00.831Z,2552.8
2023-04-28T08:58:00.820Z,2677.9
2023-04-28T08:59:00.964Z,2677.9
2023-04-28T09:00:01.177Z,2911.7
2023-04-28T09:01:00.815Z,2742.6
2023-04-28T09:02:00.899Z,2522.4
2023-04-28T09:03:00.966Z,2211.5
2023-04-28T09:04:01.050Z,1962.2
2023-04-28T09:05:01.381Z,1893.1
2023-04-28T09:06:00.913Z,1870.6
2023-04-28T09:07:01.053Z,2265.1
2023-04-28T09:08:00.917Z,2462.8
2023-04-28T09:09:00.923Z,2742.6
2023-04-28T09:10:01.129Z,3654.5
2023-04-28T09:11:00.924Z,4021.3
2023-04-28T09:12:00.911Z,4218.4
2023-04-28T09:13:00.971Z,4320.5
2023-04-28T09:14:00.976Z,3654.5
2023-04-28T09:15:00.830Z,3242.6
2023-04-28T09:16:01.157Z,3483.7
2023-04-28T09:17:01.004Z,3165.8
2023-04-28T09:18:00.803Z,2677.9
2023-04-28T09:19:00.773Z,2677.9
2023-04-28T09:20:00.880Z,3018
2023-04-28T09:21:01.956Z,2646
2023-04-28T09:22:05.564Z,2522.4
2023-04-28T09:23:00.859Z,2677.9
2023-04-28T09:24:00.786Z,3054.3
2023-04-28T09:25:00.763Z,2710.1
2023-04-28T09:26:00.757Z,3654.5
2023-04-28T09:27:01.737Z,2946.7
2023-04-28T09:28:00.778Z,2058.4
2023-04-28T09:29:00.757Z,1659.7
2023-04-28T09:30:00.867Z,1582.3
2023-04-28T09:31:00.859Z,1938.9
2023-04-28T09:32:00.771Z,1962.2
2023-04-28T09:33:00.810Z,2404.6
2023-04-28T09:34:00.762Z,2319.9
2023-04-28T09:35:00.772Z,1826.4
2023-04-28T09:36:00.774Z,1804.7
2023-04-28T09:37:00.797Z,1870.6
2023-04-28T09:38:00.849Z,2433.5
2023-04-28T09:39:00.860Z,2211.5
2023-04-28T09:40:00.852Z,2614.6
2023-04-28T09:41:00.830Z,3973.5
2023-04-28T09:42:00.782Z,4218.4
2023-04-28T09:43:06.273Z,3611.1
2023-04-28T09:44:00.777Z,3926.3
2023-04-28T09:45:00.801Z,4021.3
2023-04-28T09:46:00.868Z,4425
2023-04-28T09:47:00.814Z,4927.9
2023-04-28T09:48:00.826Z,5107.8
2023-04-28T09:49:00.798Z,6487.9
2023-04-28T09:50:00.880Z,6645.2
2023-04-28T09:51:00.810Z,6487.9
2023-04-28T09:52:00.803Z,6725.2
2023-04-28T09:53:00.825Z,6645.2
2023-04-28T09:54:00.793Z,6566.3
2023-04-28T09:55:00.944Z,5422.7
2023-04-28T09:56:00.848Z,4987.1
2023-04-28T09:57:00.866Z,4269.1
2023-04-28T09:58:00.821Z,4069.8
2023-04-28T09:59:00.821Z,4372.4
2023-04-28T10:00:00.952Z,4697.8
2023-04-28T10:01:00.971Z,4697.8
2023-04-28T10:02:04.618Z,5107.8
2023-04-28T10:03:01.141Z,5422.7
2023-04-28T10:04:00.964Z,5422.7
2023-04-28T10:05:01.243Z,7670.6
2023-04-28T10:06:00.872Z,9287.8
2023-04-28T10:07:00.829Z,10099
2023-04-28T10:08:00.802Z,6487.9
2023-04-28T10:09:01.078Z,4811.5
2023-04-28T10:10:00.880Z,5358.2
2023-04-28T10:11:00.874Z,4320.5
2023-04-28T10:12:00.850Z,4478.2
2023-04-28T10:13:00.812Z,4425
2023-04-28T10:14:00.892Z,3742.9
2023-04-28T10:15:00.973Z,3926.3
2023-04-28T10:16:00.839Z,3742.9
2023-04-28T10:17:00.824Z,3204.1
2023-04-28T10:18:00.928Z,3165.8
2023-04-28T10:19:00.970Z,3091.1
2023-04-28T10:20:00.913Z,2462.8
2023-04-28T10:21:00.850Z,2292.3
2023-04-28T10:22:00.849Z,2614.6
2023-04-28T10:23:00.859Z,2376
2023-04-28T10:24:00.825Z,2404.6
2023-04-28T10:25:00.825Z,3018
2023-04-28T10:26:00.822Z,2982.2
2023-04-28T10:27:01.010Z,3165.8
2023-04-28T10:28:00.832Z,3926.3
2023-04-28T10:29:00.882Z,4118.8
2023-04-28T10:30:01.029Z,4586.8
2023-04-28T10:31:01.015Z,5231.6
2023-04-28T10:32:00.864Z,4532.1
2023-04-28T10:33:00.894Z,4478.2
2023-04-28T10:34:00.934Z,5169.5
2023-04-28T10:35:00.834Z,4218.4
2023-04-28T10:36:00.838Z,3242.6
2023-04-28T10:37:00.860Z,3401.4
2023-04-28T10:38:00.896Z,3483.7
2023-04-28T10:39:00.872Z,4532.1
2023-04-28T10:40:00.909Z,3926.3
2023-04-28T10:41:00.857Z,3973.5
2023-04-28T10:42:00.864Z,4425
2023-04-28T10:43:00.900Z,3321.1
2023-04-28T10:44:00.898Z,4320.5
2023-04-28T10:45:01.072Z,3926.3
2023-04-28T10:46:01.071Z,4869.3
2023-04-28T10:47:01.024Z,4869.3
2023-04-28T10:48:00.980Z,4168.3
2023-04-28T10:49:00.933Z,4320.5
2023-04-28T10:50:01.243Z,5169.5
2023-04-28T10:51:00.912Z,4869.3
2023-04-28T10:52:00.950Z,4532.1
2023-04-28T10:53:00.914Z,5487.9
2023-04-28T10:54:00.921Z,5826.2
2023-04-28T10:55:06.990Z,6111.5
2023-04-28T10:56:01.004Z,5620.7
2023-04-28T10:57:00.922Z,5688.3
2023-04-28T10:58:00.962Z,5107.8
2023-04-28T10:59:01.012Z,4168.3
2023-04-28T11:00:01.182Z,3654.5
2023-04-28T11:01:00.978Z,4118.8
2023-04-28T11:02:01.029Z,4425
2023-04-28T11:03:01.106Z,4425
2023-04-28T11:04:01.430Z,4320.5
2023-04-28T11:05:01.012Z,4320.5
2023-04-28T11:06:00.950Z,4372.4
2023-04-28T11:07:01.009Z,4021.3
2023-04-28T11:08:01.078Z,4069.8
2023-04-28T11:09:01.180Z,5231.6
2023-04-28T11:10:01.065Z,6259.4
2023-04-28T11:11:01.047Z,5896.2
2023-04-28T11:12:00.972Z,4118.8
2023-04-28T11:13:00.981Z,5358.2
2023-04-28T11:14:00.919Z,5688.3
2023-04-28T11:15:01.026Z,5358.2
2023-04-28T11:16:00.987Z,4168.3
2023-04-28T11:17:00.948Z,3525.6
2023-04-28T11:18:00.964Z,3742.9
2023-04-28T11:19:00.938Z,3321.1
2023-04-28T11:20:00.959Z,2982.2
2023-04-28T11:21:00.896Z,2842.8
2023-04-28T11:22:00.893Z,2742.6
2023-04-28T11:23:00.890Z,3165.8
2023-04-28T11:24:00.936Z,3442.3
2023-04-28T11:25:00.920Z,3018
2023-04-28T11:26:00.900Z,3788
2023-04-28T11:27:00.929Z,3281.6
2023-04-28T11:28:00.936Z,3654.5
2023-04-28T11:29:00.939Z,3568
2023-04-28T11:30:01.187Z,3442.3
2023-04-28T11:31:00.908Z,3611.1
2023-04-28T11:32:00.963Z,3742.9
2023-04-28T11:33:00.960Z,3698.5
2023-04-28T11:34:00.930Z,4069.8
2023-04-28T11:35:00.927Z,3742.9
2023-04-28T11:36:00.899Z,3442.3
2023-04-28T11:37:00.921Z,3483.7
2023-04-28T11:38:00.916Z,3483.7
2023-04-28T11:39:00.922Z,3361
2023-04-28T11:40:00.990Z,2842.8
2023-04-28T11:41:00.972Z,2583.5
2023-04-28T11:42:00.969Z,2583.5
2023-04-28T11:43:01.911Z,2742.6
2023-04-28T11:44:00.945Z,2522.4
2023-04-28T11:45:00.952Z,2742.6
2023-04-28T11:46:00.918Z,2946.7
2023-04-28T11:47:01.462Z,3742.9
2023-04-28T11:48:00.920Z,3281.6
2023-04-28T11:49:00.809Z,2982.2
2023-04-28T11:50:00.875Z,3401.4
2023-04-28T11:51:00.743Z,3973.5
2023-04-28T11:52:00.746Z,4642
2023-04-28T11:53:00.729Z,3833.5
2023-04-28T11:54:00.741Z,3788
2023-04-28T11:55:00.801Z,3568
2023-04-28T11:56:00.608Z,4218.4
2023-04-28T11:57:00.903Z,5358.2
2023-04-28T11:58:00.545Z,4069.8
2023-04-28T11:59:01.754Z,3926.3
2023-04-28T12:00:03.912Z,4869.3
2023-04-28T12:01:02.486Z,4987.1
2023-04-28T12:02:00.831Z,4987.1
2023-04-28T12:03:04.615Z,4425
2023-04-28T12:04:01.890Z,3926.3
2023-04-28T12:05:02.644Z,4811.5
2023-04-28T12:06:00.576Z,5047.1
2023-04-28T12:07:00.668Z,4869.3
2023-04-28T12:08:00.559Z,5231.6
2023-04-28T12:09:00.498Z,5620.7
2023-04-28T12:10:00.564Z,6970.7
2023-04-28T12:11:00.510Z,6334.7
2023-04-28T12:12:00.557Z,5358.2
2023-04-28T12:13:00.531Z,5047.1
2023-04-28T12:14:00.590Z,5169.5
2023-04-28T12:15:00.524Z,3833.5
2023-04-28T12:16:00.572Z,4118.8
2023-04-28T12:17:00.548Z,2946.7
2023-04-28T12:18:00.513Z,2775.6
2023-04-28T12:19:00.505Z,2522.4
2023-04-28T12:20:00.535Z,2108.2
2023-04-28T12:21:00.613Z,2159.2
2023-04-28T12:22:00.641Z,2319.9
2023-04-28T12:23:00.514Z,2238.1
2023-04-28T12:24:00.553Z,2238.1
2023-04-28T12:25:00.541Z,2404.6
2023-04-28T12:26:00.802Z,2433.5
2023-04-28T12:27:01.615Z,2433.5
2023-04-28T12:28:00.588Z,2646
2023-04-28T12:29:00.696Z,3281.6
2023-04-28T12:30:00.791Z,3018
2023-04-28T12:31:00.620Z,2982.2
2023-04-28T12:32:00.910Z,3568
2023-04-28T12:33:02.065Z,4754.3
2023-04-28T12:34:03.386Z,5756.7
2023-04-28T12:35:04.663Z,4811.5
2023-04-28T12:36:01.732Z,5231.6
2023-04-28T12:37:01.328Z,5047.1
2023-04-28T12:38:01.698Z,3361
2023-04-28T12:39:00.810Z,3879.6
2023-04-28T12:40:01.125Z,2877.1
2023-04-28T12:41:00.938Z,3165.8
2023-04-28T12:42:00.778Z,3742.9
2023-04-28T12:43:00.794Z,4168.3
2023-04-28T12:44:01.773Z,2877.1
2023-04-28T12:45:00.546Z,3018
2023-04-28T12:46:00.591Z,2775.6
2023-04-28T12:47:00.527Z,2319.9
2023-04-28T12:48:00.583Z,2462.8
2023-04-28T12:49:00.531Z,2522.4
2023-04-28T12:50:00.546Z,3054.3
2023-04-28T12:51:00.586Z,4642
2023-04-28T12:52:00.552Z,4532.1
2023-04-28T12:53:00.532Z,3698.5
2023-04-28T12:54:00.543Z,3611.1
2023-04-28T12:55:00.582Z,3611.1
2023-04-28T12:56:00.602Z,3091.1
2023-04-28T12:57:00.661Z,2347.8
2023-04-28T12:58:00.546Z,2742.6
2023-04-28T12:59:00.558Z,4478.2
2023-04-28T13:00:00.610Z,5896.2
2023-04-28T13:01:00.539Z,6887.9
2023-04-28T13:02:00.749Z,6038.9
2023-04-28T13:03:00.677Z,5107.8
2023-04-28T13:04:00.760Z,5231.6
2023-04-28T13:05:00.596Z,8046.3